createdAt,value
2022-10-22T00:00:01.926Z,16.88
2022-10-22T00:01:02.120Z,16.90
2022-10-22T00:02:02.433Z,16.90
2022-10-22T00:03:02.812Z,16.90
2022-10-22T00:04:02.985Z,16.92
2022-10-22T00:05:03.220Z,16.92
2022-10-22T00:06:03.534Z,16.93
2022-10-22T00:07:03.834Z,16.95
2022-10-22T00:08:04.112Z,16.96
2022-10-22T00:09:04.435Z,16.96
2022-10-22T00:10:04.634Z,16.93
2022-10-22T00:11:04.843Z,16.93
2022-10-22T00:12:05.190Z,16.95
2022-10-22T00:13:05.464Z,16.99
2022-10-22T00:14:05.725Z,17.00
2022-10-22T00:15:06.043Z,16.99
2022-10-22T00:16:06.360Z,16.98
2022-10-22T00:17:08.283Z,16.95
2022-10-22T00:18:06.989Z,16.98
2022-10-22T00:19:07.245Z,16.98
2022-10-22T00:20:07.545Z,16.95
2022-10-22T00:21:08.742Z,16.93
2022-10-22T00:22:08.189Z,16.90
2022-10-22T00:23:08.542Z,16.92
2022-10-22T00:24:08.834Z,16.88
2022-10-22T00:25:09.100Z,16.88
2022-10-22T00:26:09.388Z,16.86
2022-10-22T00:27:09.648Z,16.88
2022-10-22T00:28:09.930Z,16.86
2022-10-22T00:29:10.301Z,16.88
2022-10-22T00:30:10.556Z,16.85
2022-10-22T00:31:10.881Z,16.83
2022-10-22T00:32:11.181Z,16.80
2022-10-22T00:33:11.535Z,16.85
2022-10-22T00:34:11.904Z,16.80
2022-10-22T00:35:12.093Z,16.77
2022-10-22T00:36:12.392Z,16.74
2022-10-22T00:37:12.634Z,16.74
2022-10-22T00:38:12.946Z,16.71
2022-10-22T00:39:13.209Z,16.73
2022-10-22T00:40:13.526Z,16.67
2022-10-22T00:41:13.801Z,16.67
2022-10-22T00:42:14.102Z,16.63
2022-10-22T00:43:14.362Z,16.63
2022-10-22T00:44:14.638Z,16.60
2022-10-22T00:45:14.926Z,16.58
2022-10-22T00:46:15.150Z,16.56
2022-10-22T00:47:15.505Z,16.55
2022-10-22T00:48:15.783Z,16.56
2022-10-22T00:49:16.103Z,16.53
2022-10-22T00:50:16.414Z,16.52
2022-10-22T00:51:16.699Z,16.49
2022-10-22T00:52:16.972Z,16.45
2022-10-22T00:53:17.329Z,16.44
2022-10-22T00:54:17.683Z,16.44
2022-10-22T00:55:17.874Z,16.42
2022-10-22T00:56:18.129Z,16.40
2022-10-22T00:57:18.379Z,16.41
2022-10-22T00:58:18.698Z,16.41
2022-10-22T00:59:19.067Z,16.38
2022-10-22T01:00:19.337Z,16.41
2022-10-22T01:01:19.717Z,16.40
2022-10-22T01:02:19.914Z,16.38
2022-10-22T01:03:20.164Z,16.38
2022-10-22T01:04:20.535Z,16.38
2022-10-22T01:05:20.790Z,16.40
2022-10-22T01:06:21.074Z,16.35
2022-10-22T01:07:21.344Z,16.37
2022-10-22T01:08:21.621Z,16.33
2022-10-22T01:09:21.948Z,16.30
2022-10-22T01:10:22.223Z,16.26
2022-10-22T01:11:22.496Z,16.25
2022-10-22T01:12:22.823Z,16.27
2022-10-22T01:13:23.114Z,16.26
2022-10-22T01:14:23.509Z,16.25
2022-10-22T01:15:23.820Z,16.26
2022-10-22T01:16:24.509Z,16.22
2022-10-22T01:17:24.350Z,16.22
2022-10-22T01:18:24.653Z,16.20
2022-10-22T01:19:24.968Z,16.16
2022-10-22T01:20:25.252Z,16.15
2022-10-22T01:21:25.568Z,16.15
2022-10-22T01:22:25.795Z,16.18
2022-10-22T01:23:26.098Z,16.16
2022-10-22T01:24:26.422Z,16.14
2022-10-22T01:25:26.617Z,16.18
2022-10-22T01:26:26.880Z,16.14
2022-10-22T01:27:27.284Z,16.12
2022-10-22T01:28:27.524Z,16.12
2022-10-22T01:29:27.804Z,16.07
2022-10-22T01:30:28.210Z,16.04
2022-10-22T01:31:28.352Z,16.04
2022-10-22T01:32:28.680Z,16.04
2022-10-22T01:33:28.996Z,16.09
2022-10-22T01:34:29.311Z,16.04
2022-10-22T01:35:29.693Z,16.01
2022-10-22T01:36:29.953Z,15.99
2022-10-22T01:37:30.239Z,15.97
2022-10-22T01:38:30.596Z,15.94
2022-10-22T01:39:30.930Z,15.93
2022-10-22T01:40:31.214Z,15.92
2022-10-22T01:41:31.460Z,15.89
2022-10-22T01:42:31.769Z,15.86
2022-10-22T01:43:32.077Z,15.85
2022-10-22T01:44:32.443Z,15.88
2022-10-22T01:45:32.593Z,15.86
2022-10-22T01:46:32.852Z,15.88
2022-10-22T01:47:33.166Z,15.86
2022-10-22T01:48:33.468Z,15.86
2022-10-22T01:49:33.755Z,15.85
2022-10-22T01:50:34.106Z,15.85
2022-10-22T01:51:34.361Z,15.79
2022-10-22T01:52:34.668Z,15.82
2022-10-22T01:53:35.036Z,15.82
2022-10-22T01:54:35.259Z,15.82
2022-10-22T01:55:35.566Z,15.79
2022-10-22T01:56:35.820Z,15.75
2022-10-22T01:57:36.135Z,15.76
2022-10-22T01:58:36.485Z,15.76
2022-10-22T01:59:36.762Z,15.74
2022-10-22T02:00:37.125Z,15.75
2022-10-22T02:01:37.350Z,15.75
2022-10-22T02:02:37.617Z,15.74
2022-10-22T02:03:37.849Z,15.74
2022-10-22T02:04:38.564Z,15.70
2022-10-22T02:05:38.756Z,15.72
2022-10-22T02:06:38.704Z,15.74
2022-10-22T02:07:39.401Z,15.76
2022-10-22T02:08:39.318Z,15.76
2022-10-22T02:09:39.621Z,15.78
2022-10-22T02:10:39.951Z,15.78
2022-10-22T02:11:40.226Z,15.78
2022-10-22T02:12:40.661Z,15.79
2022-10-22T02:13:40.725Z,15.79
2022-10-22T02:14:41.064Z,15.79
2022-10-22T02:15:41.398Z,15.82
2022-10-22T02:16:41.611Z,15.81
2022-10-22T02:17:41.884Z,15.76
2022-10-22T02:18:42.157Z,15.75
2022-10-22T02:19:42.477Z,15.76
2022-10-22T02:20:42.719Z,15.78
2022-10-22T02:21:44.004Z,15.82
2022-10-22T02:22:43.667Z,15.84
2022-10-22T02:23:43.715Z,15.85
2022-10-22T02:24:43.989Z,15.85
2022-10-22T02:25:44.359Z,15.86
2022-10-22T02:26:44.644Z,15.81
2022-10-22T02:27:45.867Z,15.79
2022-10-22T02:28:45.171Z,15.76
2022-10-22T02:29:45.461Z,15.76
2022-10-22T02:30:45.727Z,15.76
2022-10-22T02:31:46.103Z,15.79
2022-10-22T02:32:46.336Z,15.74
2022-10-22T02:33:46.669Z,15.74
2022-10-22T02:34:47.022Z,15.70
2022-10-22T02:35:47.325Z,15.74
2022-10-22T02:36:49.715Z,15.70
2022-10-22T02:37:47.971Z,15.72
2022-10-22T02:38:48.237Z,15.74
2022-10-22T02:39:48.597Z,15.72
2022-10-22T02:40:48.864Z,15.70
2022-10-22T02:41:49.173Z,15.70
2022-10-22T02:42:49.471Z,15.67
2022-10-22T02:43:49.776Z,15.64
2022-10-22T02:44:50.127Z,15.61
2022-10-22T02:45:50.411Z,15.63
2022-10-22T02:46:50.625Z,15.60
2022-10-22T02:47:50.916Z,15.61
2022-10-22T02:48:51.241Z,15.61
2022-10-22T02:49:51.887Z,15.63
2022-10-22T02:50:51.708Z,15.64
2022-10-22T02:51:52.033Z,15.67
2022-10-22T02:52:52.309Z,15.64
2022-10-22T02:53:52.638Z,15.66
2022-10-22T02:54:52.887Z,15.68
2022-10-22T02:55:53.179Z,15.72
2022-10-22T02:56:53.494Z,15.70
2022-10-22T02:57:53.793Z,15.74
2022-10-22T02:58:54.156Z,15.68
2022-10-22T02:59:54.405Z,15.74
2022-10-22T03:00:54.735Z,15.72
2022-10-22T03:01:55.029Z,15.67
2022-10-22T03:02:55.372Z,15.72
2022-10-22T03:03:55.633Z,15.70
2022-10-22T03:04:55.935Z,15.74
2022-10-22T03:05:56.203Z,15.68
2022-10-22T03:06:56.486Z,15.67
2022-10-22T03:07:56.696Z,15.66
2022-10-22T03:08:57.035Z,15.66
2022-10-22T03:09:57.337Z,15.66
2022-10-22T03:10:57.682Z,15.66
2022-10-22T03:11:58.366Z,15.68
2022-10-22T03:12:58.174Z,15.67
2022-10-22T03:13:58.472Z,15.74
2022-10-22T03:14:58.784Z,15.74
2022-10-22T03:15:59.109Z,15.74
2022-10-22T03:16:59.358Z,15.75
2022-10-22T03:17:59.691Z,15.76
2022-10-22T03:18:59.978Z,15.72
2022-10-22T03:20:00.267Z,15.67
2022-10-22T03:21:00.567Z,15.67
2022-10-22T03:22:00.866Z,15.72
2022-10-22T03:23:01.207Z,15.74
2022-10-22T03:24:01.443Z,15.75
2022-10-22T03:25:01.742Z,15.72
2022-10-22T03:26:02.129Z,15.74
2022-10-22T03:27:02.295Z,15.74
2022-10-22T03:28:02.596Z,15.72
2022-10-22T03:29:02.890Z,15.67
2022-10-22T03:30:03.201Z,15.67
2022-10-22T03:31:03.514Z,15.64
2022-10-22T03:32:03.852Z,15.63
2022-10-22T03:33:04.072Z,15.63
2022-10-22T03:34:04.350Z,15.59
2022-10-22T03:35:04.603Z,15.63
2022-10-22T03:36:04.954Z,15.60
2022-10-22T03:37:05.220Z,15.59
2022-10-22T03:38:05.500Z,15.60
2022-10-22T03:39:05.738Z,15.64
2022-10-22T03:40:06.015Z,15.64
2022-10-22T03:41:06.360Z,15.66
2022-10-22T03:42:06.602Z,15.68
2022-10-22T03:43:06.921Z,15.68
2022-10-22T03:44:07.174Z,15.68
2022-10-22T03:45:07.486Z,15.72
2022-10-22T03:46:07.794Z,15.74
2022-10-22T03:47:08.089Z,15.75
2022-10-22T03:48:08.422Z,15.68
2022-10-22T03:49:08.737Z,15.68
2022-10-22T03:50:09.018Z,15.70
2022-10-22T03:51:09.292Z,15.68
2022-10-22T03:52:09.626Z,15.75
2022-10-22T03:53:09.927Z,15.70
2022-10-22T03:54:10.197Z,15.72
2022-10-22T03:55:10.506Z,15.75
2022-10-22T03:56:10.774Z,15.74
2022-10-22T03:57:11.144Z,15.67
2022-10-22T03:58:11.427Z,15.70
2022-10-22T03:59:11.712Z,15.70
2022-10-22T04:00:11.972Z,15.68
2022-10-22T04:01:12.303Z,15.67
2022-10-22T04:02:12.445Z,15.66
2022-10-22T04:03:12.781Z,15.66
2022-10-22T04:04:13.083Z,15.67
2022-10-22T04:06:13.543Z,15.66
2022-10-22T04:07:13.864Z,15.66
2022-10-22T04:08:14.050Z,15.66
2022-10-22T04:09:14.401Z,15.64
2022-10-22T04:10:14.661Z,15.61
2022-10-22T04:11:14.931Z,15.66
2022-10-22T04:12:15.247Z,15.66
2022-10-22T04:13:15.548Z,15.66
2022-10-22T04:14:15.809Z,15.67
2022-10-22T04:15:16.137Z,15.64
2022-10-22T04:16:16.441Z,15.60
2022-10-22T04:17:16.701Z,15.57
2022-10-22T04:18:17.012Z,15.56
2022-10-22T04:19:17.280Z,15.57
2022-10-22T04:20:17.597Z,15.56
2022-10-22T04:21:17.858Z,15.51
2022-10-22T04:22:18.164Z,15.45
2022-10-22T04:23:18.476Z,15.48
2022-10-22T04:24:18.739Z,15.49
2022-10-22T04:25:19.066Z,15.49
2022-10-22T04:26:19.329Z,15.48
2022-10-22T04:27:19.592Z,15.52
2022-10-22T04:28:19.969Z,15.56
2022-10-22T04:29:20.243Z,15.49
2022-10-22T04:30:20.505Z,15.51
2022-10-22T04:31:20.711Z,15.52
2022-10-22T04:32:21.034Z,15.51
2022-10-22T04:33:21.368Z,15.48
2022-10-22T04:34:21.616Z,15.49
2022-10-22T04:35:22.000Z,15.48
2022-10-22T04:36:22.256Z,15.45
2022-10-22T04:37:22.569Z,15.49
2022-10-22T04:38:22.879Z,15.46
2022-10-22T04:39:23.169Z,15.51
2022-10-22T04:40:23.430Z,15.52
2022-10-22T04:41:23.714Z,15.51
2022-10-22T04:42:24.059Z,15.49
2022-10-22T04:43:24.370Z,15.52
2022-10-22T04:44:24.671Z,15.46
2022-10-22T04:45:25.009Z,15.48
2022-10-22T04:46:25.284Z,15.49
2022-10-22T04:47:25.617Z,15.45
2022-10-22T04:48:25.850Z,15.45
2022-10-22T04:49:26.147Z,15.43
2022-10-22T04:50:26.428Z,15.39
2022-10-22T04:51:26.776Z,15.43
2022-10-22T04:52:27.018Z,15.42
2022-10-22T04:53:27.281Z,15.43
2022-10-22T04:54:30.472Z,15.39
2022-10-22T04:56:28.159Z,15.35
2022-10-22T04:57:28.442Z,15.33
2022-10-22T04:58:28.721Z,15.30
2022-10-22T04:59:29.058Z,15.27
2022-10-22T05:00:29.392Z,15.28
2022-10-22T05:01:29.696Z,15.24
2022-10-22T05:02:29.903Z,15.24
2022-10-22T05:03:30.182Z,15.23
2022-10-22T05:04:30.444Z,15.24
2022-10-22T05:05:30.775Z,15.23
2022-10-22T05:06:31.082Z,15.23
2022-10-22T05:07:31.467Z,15.21
2022-10-22T05:08:31.680Z,15.19
2022-10-22T05:09:31.901Z,15.17
2022-10-22T05:10:32.196Z,15.19
2022-10-22T05:11:32.458Z,15.17
2022-10-22T05:12:32.775Z,15.17
2022-10-22T05:13:33.023Z,15.13
2022-10-22T05:14:33.304Z,15.15
2022-10-22T05:15:33.658Z,15.12
2022-10-22T05:16:33.918Z,15.09
2022-10-22T05:17:34.113Z,15.15
2022-10-22T05:18:34.352Z,15.13
2022-10-22T05:19:34.561Z,15.11
2022-10-22T05:20:34.872Z,15.09
2022-10-22T05:21:35.102Z,15.08
2022-10-22T05:22:35.499Z,15.13
2022-10-22T05:23:35.759Z,15.15
2022-10-22T05:24:36.034Z,15.11
2022-10-22T05:25:36.314Z,15.13
2022-10-22T05:26:36.553Z,15.13
2022-10-22T05:27:36.856Z,15.13
2022-10-22T05:28:37.130Z,15.13
2022-10-22T05:29:37.496Z,15.13
2022-10-22T05:30:37.821Z,15.09
2022-10-22T05:31:38.071Z,15.11
2022-10-22T05:32:38.427Z,15.09
2022-10-22T05:33:38.622Z,15.09
2022-10-22T05:34:39.333Z,15.11
2022-10-22T05:35:39.173Z,15.13
2022-10-22T05:36:39.503Z,15.20
2022-10-22T05:37:40.054Z,15.23
2022-10-22T05:38:39.977Z,15.24
2022-10-22T05:39:40.374Z,15.24
2022-10-22T05:40:40.564Z,15.27
2022-10-22T05:41:40.791Z,15.26
2022-10-22T05:42:41.348Z,15.27
2022-10-22T05:43:41.349Z,15.28
2022-10-22T05:44:41.665Z,15.27
2022-10-22T05:45:42.051Z,15.30
2022-10-22T05:46:42.358Z,15.33
2022-10-22T05:47:42.546Z,15.30
2022-10-22T05:48:43.055Z,15.27
2022-10-22T05:49:43.222Z,15.21
2022-10-22T05:50:43.595Z,15.26
2022-10-22T05:51:43.906Z,15.27
2022-10-22T05:52:44.230Z,15.24
2022-10-22T05:53:44.953Z,15.23
2022-10-22T05:54:44.827Z,15.21
2022-10-22T05:55:45.181Z,15.24
2022-10-22T05:56:45.397Z,15.27
2022-10-22T05:57:45.716Z,15.27
2022-10-22T05:58:46.033Z,15.30
2022-10-22T05:59:46.343Z,15.27
2022-10-22T06:00:46.700Z,15.27
2022-10-22T06:01:46.993Z,15.26
2022-10-22T06:02:47.192Z,15.28
2022-10-22T06:03:47.498Z,15.24
2022-10-22T06:04:47.692Z,15.21
2022-10-22T06:05:47.998Z,15.23
2022-10-22T06:06:48.310Z,15.19
2022-10-22T06:07:48.655Z,15.15
2022-10-22T06:08:49.849Z,15.09
2022-10-22T06:09:49.171Z,15.12
2022-10-22T06:10:49.495Z,15.09
2022-10-22T06:11:49.825Z,15.09
2022-10-22T06:12:50.146Z,15.11
2022-10-22T06:13:50.481Z,15.08
2022-10-22T06:14:50.799Z,15.09
2022-10-22T06:15:51.160Z,15.08
2022-10-22T06:16:51.383Z,15.09
2022-10-22T06:17:52.217Z,15.09
2022-10-22T06:18:52.005Z,15.08
2022-10-22T06:19:52.266Z,15.06
2022-10-22T06:20:52.468Z,15.03
2022-10-22T06:21:52.830Z,15.01
2022-10-22T06:22:53.067Z,15.01
2022-10-22T06:23:53.270Z,14.99
2022-10-22T06:24:53.674Z,14.91
2022-10-22T06:25:53.909Z,14.91
2022-10-22T06:26:54.143Z,14.94
2022-10-22T06:27:54.459Z,14.94
2022-10-22T06:28:54.860Z,14.94
2022-10-22T06:29:55.148Z,14.91
2022-10-22T06:30:55.476Z,14.87
2022-10-22T06:31:55.688Z,14.86
2022-10-22T06:32:56.030Z,14.84
2022-10-22T06:33:56.248Z,14.86
2022-10-22T06:34:56.582Z,14.90
2022-10-22T06:35:56.890Z,14.91
2022-10-22T06:36:57.117Z,14.88
2022-10-22T06:37:57.432Z,14.87
2022-10-22T06:38:57.776Z,14.95
2022-10-22T06:39:58.139Z,14.98
2022-10-22T06:40:58.331Z,14.99
2022-10-22T06:41:58.671Z,14.99
2022-10-22T06:42:59.043Z,15.05
2022-10-22T06:43:59.294Z,15.08
2022-10-22T06:44:59.524Z,15.08
2022-10-22T06:45:59.831Z,15.06
2022-10-22T06:47:00.185Z,15.05
2022-10-22T06:48:00.403Z,15.06
2022-10-22T06:49:00.739Z,15.05
2022-10-22T06:50:01.095Z,15.06
2022-10-22T06:51:01.341Z,15.08
2022-10-22T06:52:01.569Z,15.11
2022-10-22T06:53:01.924Z,15.11
2022-10-22T06:54:02.155Z,15.13
2022-10-22T06:55:02.385Z,15.13
2022-10-22T06:56:02.605Z,15.12
2022-10-22T06:57:03.017Z,15.13
2022-10-22T06:58:03.180Z,15.15
2022-10-22T06:59:03.526Z,15.19
2022-10-22T07:00:03.756Z,15.21
2022-10-22T07:01:04.182Z,15.24
2022-10-22T07:02:04.466Z,15.24
2022-10-22T07:03:04.665Z,15.31
2022-10-22T07:04:04.900Z,15.35
2022-10-22T07:05:05.598Z,15.33
2022-10-22T07:06:05.545Z,15.38
2022-10-22T07:07:05.774Z,15.41
2022-10-22T07:08:06.069Z,15.42
2022-10-22T07:09:06.419Z,15.46
2022-10-22T07:10:06.566Z,15.52
2022-10-22T07:11:06.778Z,15.54
2022-10-22T07:12:07.153Z,15.54
2022-10-22T07:13:07.381Z,15.56
2022-10-22T07:14:07.718Z,15.61
2022-10-22T07:15:08.056Z,15.64
2022-10-22T07:16:08.457Z,15.72
2022-10-22T07:17:09.052Z,15.78
2022-10-22T07:18:09.018Z,15.82
2022-10-22T07:19:09.267Z,15.89
2022-10-22T07:20:09.549Z,15.97
2022-10-22T07:21:09.754Z,16.01
2022-10-22T07:22:10.115Z,16.09
2022-10-22T07:23:10.373Z,16.15
2022-10-22T07:24:10.661Z,16.16
2022-10-22T07:25:11.005Z,16.18
2022-10-22T07:26:11.341Z,16.18
2022-10-22T07:27:11.895Z,16.18
2022-10-22T07:28:11.985Z,16.25
2022-10-22T07:29:12.296Z,16.23
2022-10-22T07:30:12.486Z,16.25
2022-10-22T07:31:12.808Z,16.25
2022-10-22T07:32:13.245Z,16.34
2022-10-22T07:33:13.412Z,16.35
2022-10-22T07:34:13.781Z,16.37
2022-10-22T07:35:14.017Z,16.40
2022-10-22T07:36:14.252Z,16.42
2022-10-22T07:37:15.455Z,16.48
2022-10-22T07:38:14.811Z,16.58
2022-10-22T07:39:15.161Z,16.60
2022-10-22T07:40:15.444Z,16.60
2022-10-22T07:41:15.723Z,16.65
2022-10-22T07:42:15.909Z,16.65
2022-10-22T07:43:16.285Z,16.67
2022-10-22T07:44:16.510Z,16.68
2022-10-22T07:45:16.751Z,16.60
2022-10-22T07:46:17.060Z,16.65
2022-10-22T07:47:17.379Z,16.75
2022-10-22T07:48:17.746Z,16.83
2022-10-22T07:49:18.006Z,16.83
2022-10-22T07:50:18.218Z,16.88
2022-10-22T07:51:18.694Z,16.89
2022-10-22T07:52:18.853Z,16.85
2022-10-22T07:53:19.203Z,16.75
2022-10-22T07:54:19.436Z,16.68
2022-10-22T07:55:19.878Z,16.68
2022-10-22T07:56:19.952Z,16.63
2022-10-22T07:57:20.222Z,16.62
2022-10-22T07:58:20.485Z,16.59
2022-10-22T07:59:20.790Z,16.53
2022-10-22T08:00:23.226Z,16.53
2022-10-22T08:01:21.368Z,16.55
2022-10-22T08:02:21.537Z,16.59
2022-10-22T08:03:21.888Z,16.60
2022-10-22T08:04:22.141Z,16.68
2022-10-22T08:05:22.456Z,16.73
2022-10-22T08:06:22.795Z,16.74
2022-10-22T08:07:23.183Z,16.73
2022-10-22T08:08:25.916Z,16.71
2022-10-22T08:09:24.640Z,16.71
2022-10-22T08:10:23.992Z,16.73
2022-10-22T08:11:24.220Z,16.70
2022-10-22T08:12:24.611Z,16.62
2022-10-22T08:13:24.933Z,16.63
2022-10-22T08:14:25.099Z,16.70
2022-10-22T08:15:25.444Z,16.77
2022-10-22T08:16:25.842Z,16.80
2022-10-22T08:17:26.161Z,16.81
2022-10-22T08:18:26.491Z,16.85
2022-10-22T08:19:26.676Z,16.90
2022-10-22T08:20:27.060Z,16.95
2022-10-22T08:21:27.264Z,16.96
2022-10-22T08:22:27.698Z,17.00
2022-10-22T08:23:28.799Z,17.04
2022-10-22T08:24:28.270Z,17.13
2022-10-22T08:25:28.466Z,17.14
2022-10-22T08:26:28.696Z,17.15
2022-10-22T08:27:28.917Z,17.20
2022-10-22T08:28:29.252Z,17.22
2022-10-22T08:29:29.518Z,17.29
2022-10-22T08:30:29.812Z,17.33
2022-10-22T08:31:30.032Z,17.36
2022-10-22T08:32:30.391Z,17.29
2022-10-22T08:33:31.105Z,17.18
2022-10-22T08:34:30.914Z,17.18
2022-10-22T08:35:31.187Z,17.20
2022-10-22T08:36:31.397Z,17.22
2022-10-22T08:37:31.753Z,17.17
2022-10-22T08:38:31.982Z,17.14
2022-10-22T08:39:32.310Z,17.18
2022-10-22T08:40:32.677Z,17.22
2022-10-22T08:41:32.890Z,17.29
2022-10-22T08:42:33.381Z,17.35
2022-10-22T08:43:33.640Z,17.44
2022-10-22T08:44:33.873Z,17.57
2022-10-22T08:45:34.051Z,17.67
2022-10-22T08:46:34.494Z,17.70
2022-10-22T08:47:35.608Z,17.74
2022-10-22T08:48:34.931Z,17.82
2022-10-22T08:49:37.234Z,17.85
2022-10-22T08:50:35.590Z,17.88
2022-10-22T08:51:35.798Z,17.91
2022-10-22T08:52:36.123Z,17.88
2022-10-22T08:53:36.453Z,17.85
2022-10-22T08:54:37.175Z,17.84
2022-10-22T08:55:37.490Z,17.79
2022-10-22T08:56:37.325Z,17.69
2022-10-22T08:57:37.698Z,17.69
2022-10-22T08:58:37.976Z,17.73
2022-10-22T08:59:38.368Z,17.81
2022-10-22T09:00:38.572Z,17.76
2022-10-22T09:01:38.824Z,17.74
2022-10-22T09:02:39.475Z,17.82
2022-10-22T09:03:39.402Z,17.82
2022-10-22T09:04:39.643Z,17.82
2022-10-22T09:05:39.915Z,17.85
2022-10-22T09:06:40.114Z,17.89
2022-10-22T09:07:40.519Z,17.94
2022-10-22T09:08:40.775Z,17.97
2022-10-22T09:09:40.941Z,17.99
2022-10-22T09:10:41.382Z,17.95
2022-10-22T09:11:41.598Z,18.00
2022-10-22T09:12:41.821Z,18.06
2022-10-22T09:13:42.192Z,18.09
2022-10-22T09:14:42.432Z,18.13
2022-10-22T09:15:45.020Z,18.15
2022-10-22T09:16:43.087Z,18.17
2022-10-22T09:17:43.831Z,18.13
2022-10-22T09:18:43.699Z,18.17
2022-10-22T09:19:43.955Z,18.17
2022-10-22T09:20:44.191Z,18.18
2022-10-22T09:21:45.523Z,18.25
2022-10-22T09:22:44.706Z,18.28
2022-10-22T09:23:44.997Z,18.25
2022-10-22T09:24:45.349Z,18.17
2022-10-22T09:25:45.549Z,18.15
2022-10-22T09:26:45.862Z,18.15
2022-10-22T09:27:46.386Z,18.10
2022-10-22T09:28:46.458Z,18.09
2022-10-22T09:29:46.836Z,18.07
2022-10-22T09:30:47.217Z,18.04
2022-10-22T09:31:47.466Z,18.09
2022-10-22T09:32:47.786Z,18.10
2022-10-22T09:33:48.004Z,18.07
2022-10-22T09:34:48.365Z,18.10
2022-10-22T09:35:48.629Z,18.15
2022-10-22T09:36:48.851Z,18.25
2022-10-22T09:37:49.198Z,18.33
2022-10-22T09:38:49.505Z,18.40
2022-10-22T09:39:49.697Z,18.46
2022-10-22T09:40:49.971Z,18.43
2022-10-22T09:41:50.209Z,18.44
2022-10-22T09:42:50.508Z,18.49
2022-10-22T09:43:50.760Z,18.55
2022-10-22T09:44:51.022Z,18.59
2022-10-22T09:45:51.260Z,18.64
2022-10-22T09:46:51.484Z,18.67
2022-10-22T09:48:01.967Z,18.64
2022-10-22T09:48:53.098Z,18.70
2022-10-22T09:49:52.403Z,18.76
2022-10-22T09:50:52.761Z,18.79
2022-10-22T09:51:53.032Z,18.80
2022-10-22T09:52:53.724Z,18.84
2022-10-22T09:53:53.558Z,18.84
2022-10-22T09:54:54.031Z,18.90
2022-10-22T09:55:54.055Z,18.92
2022-10-22T09:56:54.394Z,18.94
2022-10-22T09:57:54.759Z,18.91
2022-10-22T09:58:55.985Z,18.90
2022-10-22T09:59:55.251Z,18.91
2022-10-22T10:00:55.467Z,18.91
2022-10-22T10:01:55.821Z,18.90
2022-10-22T10:02:56.043Z,18.84
2022-10-22T10:03:57.020Z,18.87
2022-10-22T10:04:56.675Z,18.95
2022-10-22T10:06:00.068Z,18.99
2022-10-22T10:06:58.184Z,19.06
2022-10-22T10:07:57.571Z,19.06
2022-10-22T10:08:57.862Z,19.10
2022-10-22T10:09:58.099Z,19.17
2022-10-22T10:10:58.396Z,19.23
2022-10-22T10:11:58.891Z,19.28
2022-10-22T10:12:58.964Z,19.17
2022-10-22T10:13:59.211Z,19.18
2022-10-22T10:14:59.489Z,19.20
2022-10-22T10:15:59.730Z,19.25
2022-10-22T10:17:00.044Z,19.39
2022-10-22T10:18:00.267Z,19.53
2022-10-22T10:19:00.506Z,19.70
2022-10-22T10:20:03.722Z,19.76
2022-10-22T10:21:01.368Z,19.66
2022-10-22T10:22:01.291Z,19.72
2022-10-22T10:23:01.697Z,19.72
2022-10-22T10:24:01.855Z,19.79
2022-10-22T10:25:02.034Z,19.95
2022-10-22T10:26:02.404Z,20.15
2022-10-22T10:27:02.746Z,20.20
2022-10-22T10:28:03.910Z,20.25
2022-10-22T10:29:03.257Z,20.72
2022-10-22T10:30:03.603Z,21.21
2022-10-22T10:31:03.910Z,21.94
2022-10-22T10:32:04.095Z,22.49
2022-10-22T10:33:04.359Z,22.83
2022-10-22T10:34:04.686Z,23.15
2022-10-22T10:35:04.989Z,23.19
2022-10-22T10:36:05.249Z,23.52
2022-10-22T10:37:05.508Z,23.90
2022-10-22T10:38:05.733Z,24.17
2022-10-22T10:39:05.982Z,24.27
2022-10-22T10:40:06.237Z,24.67
2022-10-22T10:41:06.555Z,25.13
2022-10-22T10:42:06.784Z,25.19
2022-10-22T10:43:07.005Z,24.75
2022-10-22T10:44:07.273Z,24.83
2022-10-22T10:45:07.518Z,24.82
2022-10-22T10:46:07.882Z,25.15
2022-10-22T10:47:08.081Z,24.64
2022-10-22T10:48:08.944Z,24.29
2022-10-22T10:49:08.606Z,24.49
2022-10-22T10:50:08.889Z,24.90
2022-10-22T10:51:09.104Z,24.79
2022-10-22T10:52:09.436Z,25.12
2022-10-22T10:53:09.715Z,25.43
2022-10-22T10:54:09.930Z,25.57
2022-10-22T10:55:10.147Z,25.20
2022-10-22T10:56:10.427Z,24.63
2022-10-22T10:57:10.787Z,24.34
2022-10-22T10:58:10.993Z,24.59
2022-10-22T10:59:11.238Z,24.68
2022-10-22T11:00:11.523Z,24.50
2022-10-22T11:01:11.782Z,24.67
2022-10-22T11:02:12.131Z,24.54
2022-10-22T11:03:12.345Z,24.05
2022-10-22T11:04:12.622Z,23.67
2022-10-22T11:05:12.961Z,23.95
2022-10-22T11:06:13.103Z,24.19
2022-10-22T11:07:23.362Z,24.29
2022-10-22T11:08:14.600Z,24.64
2022-10-22T11:09:13.937Z,25.01
2022-10-22T11:10:14.274Z,25.35
2022-10-22T11:11:14.463Z,25.07
2022-10-22T11:12:14.816Z,24.71
2022-10-22T11:13:15.081Z,24.53
2022-10-22T11:14:15.318Z,24.56
2022-10-22T11:15:15.571Z,24.42
2022-10-22T11:16:15.806Z,24.05
2022-10-22T11:17:16.040Z,23.62
2022-10-22T11:18:16.295Z,23.47
2022-10-22T11:19:22.705Z,23.80
2022-10-22T11:20:17.806Z,24.37
2022-10-22T11:21:17.055Z,24.97
2022-10-22T11:22:17.447Z,24.98
2022-10-22T11:23:19.930Z,25.37
2022-10-22T11:24:18.101Z,25.64
2022-10-22T11:25:18.339Z,25.62
2022-10-22T11:26:18.669Z,25.43
2022-10-22T11:27:18.924Z,25.94
2022-10-22T11:28:19.104Z,25.99
2022-10-22T11:29:19.326Z,26.18
2022-10-22T11:30:19.714Z,26.25
2022-10-22T11:31:19.945Z,25.98
2022-10-22T11:32:20.203Z,25.75
2022-10-22T11:33:20.474Z,25.79
2022-10-22T11:34:33.369Z,25.86
2022-10-22T11:35:25.673Z,25.87
2022-10-22T11:36:21.247Z,25.27
2022-10-22T11:37:22.172Z,24.57
2022-10-22T11:38:21.747Z,24.35
2022-10-22T11:39:22.016Z,24.69
2022-10-22T11:40:22.308Z,24.75
2022-10-22T11:41:22.485Z,24.69
2022-10-22T11:42:22.880Z,25.12
2022-10-22T11:43:23.184Z,25.16
2022-10-22T11:44:23.405Z,25.27
2022-10-22T11:45:23.688Z,25.22
2022-10-22T11:46:23.945Z,25.44
2022-10-22T11:47:24.176Z,25.06
2022-10-22T11:48:24.453Z,24.45
2022-10-22T11:49:24.714Z,24.07
2022-10-22T11:50:25.165Z,23.70
2022-10-22T11:51:25.423Z,23.15
2022-10-22T11:52:25.501Z,22.82
2022-10-22T11:53:26.110Z,22.59
2022-10-22T11:54:25.996Z,22.34
2022-10-22T11:55:26.307Z,22.09
2022-10-22T11:56:26.660Z,21.91
2022-10-22T11:57:26.927Z,21.74
2022-10-22T11:58:27.178Z,21.48
2022-10-22T11:59:27.540Z,21.36
2022-10-22T12:00:27.736Z,21.34
2022-10-22T12:01:28.085Z,21.29
2022-10-22T12:02:28.247Z,21.27
2022-10-22T12:03:28.596Z,21.23
2022-10-22T12:04:28.943Z,21.14
2022-10-22T12:05:29.149Z,21.20
2022-10-22T12:06:30.450Z,21.26
2022-10-22T12:07:29.720Z,21.23
2022-10-22T12:08:30.230Z,21.27
2022-10-22T12:09:30.407Z,21.30
2022-10-22T12:10:30.521Z,21.30
2022-10-22T12:11:30.842Z,21.42
2022-10-22T12:12:31.039Z,21.51
2022-10-22T12:13:31.260Z,21.59
2022-10-22T12:14:31.618Z,21.54
2022-10-22T12:15:31.837Z,21.46
2022-10-22T12:16:37.876Z,21.51
2022-10-22T12:17:33.435Z,21.56
2022-10-22T12:18:32.661Z,21.57
2022-10-22T12:19:32.934Z,21.44
2022-10-22T12:20:33.232Z,21.36
2022-10-22T12:21:33.479Z,21.23
2022-10-22T12:22:33.738Z,21.21
2022-10-22T12:23:33.959Z,21.14
2022-10-22T12:24:34.312Z,21.14
2022-10-22T12:25:35.993Z,21.08
2022-10-22T12:26:34.760Z,21.02
2022-10-22T12:27:35.158Z,21.04
2022-10-22T12:28:35.393Z,21.04
2022-10-22T12:29:35.653Z,21.16
2022-10-22T12:30:35.883Z,21.17
2022-10-22T12:31:36.233Z,21.14
2022-10-22T12:32:36.575Z,21.08
2022-10-22T12:33:36.763Z,20.99
2022-10-22T12:34:37.053Z,21.04
2022-10-22T12:35:37.320Z,21.09
2022-10-22T12:36:37.573Z,21.04
2022-10-22T12:37:37.992Z,20.96
2022-10-22T12:38:38.106Z,20.89
2022-10-22T12:39:38.528Z,20.91
2022-10-22T12:40:38.751Z,20.89
2022-10-22T12:41:38.959Z,20.93
2022-10-22T12:42:39.342Z,20.89
2022-10-22T12:43:39.687Z,20.89
2022-10-22T12:44:39.901Z,20.90
2022-10-22T12:45:40.153Z,20.95
2022-10-22T12:46:40.395Z,20.95
2022-10-22T12:47:40.877Z,20.96
2022-10-22T12:48:40.955Z,20.98
2022-10-22T12:49:41.155Z,21.04
2022-10-22T12:50:41.418Z,21.08
2022-10-22T12:51:41.722Z,21.14
2022-10-22T12:52:42.343Z,21.08
2022-10-22T12:53:43.152Z,21.19
2022-10-22T12:54:42.506Z,21.39
2022-10-22T12:55:42.964Z,21.74
2022-10-22T12:56:43.169Z,22.04
2022-10-22T12:57:43.590Z,22.23